createdAt,value
2018-12-18T00:02:18.131Z,100.00
2018-12-18T00:04:46.397Z,100.00
2018-12-18T00:07:14.680Z,100.00
2018-12-18T00:09:42.940Z,100.00
2018-12-18T00:12:11.220Z,100.00
2018-12-18T00:14:39.509Z,100.00
2018-12-18T00:17:07.781Z,100.00
2018-12-18T00:19:36.049Z,100.00
2018-12-18T00:22:04.532Z,100.00
2018-12-18T00:24:32.853Z,100.00
2018-12-18T00:27:01.139Z,100.00
2018-12-18T00:29:29.408Z,100.00
2018-12-18T00:31:57.664Z,100.00
2018-12-18T00:34:25.928Z,100.00
2018-12-18T00:36:54.191Z,100.00
2018-12-18T00:39:22.445Z,100.00
2018-12-18T00:56:47.475Z,100.00
2018-12-18T00:59:15.795Z,100.00
2018-12-18T01:01:46.155Z,100.00
2018-12-18T01:04:14.555Z,100.00
2018-12-18T01:06:42.923Z,100.00
2018-12-18T01:09:11.213Z,100.00
2018-12-18T01:11:39.472Z,100.00
2018-12-18T01:14:07.837Z,100.00
2018-12-18T01:16:36.194Z,100.00
2018-12-18T01:19:04.640Z,100.00
2018-12-18T01:21:32.979Z,100.00
2018-12-18T01:24:01.284Z,100.00
2018-12-18T01:26:29.629Z,100.00
2018-12-18T01:28:58.267Z,100.00
2018-12-18T01:31:26.672Z,100.00
2018-12-18T01:33:59.277Z,100.00
2018-12-18T01:36:25.404Z,100.00
2018-12-18T01:38:53.681Z,100.00
2018-12-18T01:41:21.995Z,100.00
2018-12-18T01:43:50.263Z,100.00
2018-12-18T01:46:18.588Z,100.00
2018-12-18T01:48:46.904Z,100.00
2018-12-18T01:51:15.221Z,100.00
2018-12-18T01:53:43.487Z,100.00
2018-12-18T01:56:11.767Z,100.00
2018-12-18T01:58:40.109Z,100.00
2018-12-18T02:01:08.385Z,100.00
2018-12-18T02:03:36.675Z,100.00
2018-12-18T02:06:04.937Z,100.00
2018-12-18T02:08:33.204Z,100.00
2018-12-18T02:11:01.480Z,100.00
2018-12-18T02:13:29.740Z,100.00
2018-12-18T02:15:57.996Z,100.00
2018-12-18T02:18:26.255Z,100.00
2018-12-18T02:20:54.531Z,100.00
2018-12-18T02:23:22.775Z,100.00
2018-12-18T02:25:51.035Z,100.00
2018-12-18T02:28:19.339Z,100.00
2018-12-18T02:30:47.673Z,100.00
2018-12-18T02:33:15.930Z,100.00
2018-12-18T02:35:44.208Z,100.00
2018-12-18T02:40:54.985Z,100.00
2018-12-18T02:43:23.348Z,100.00
2018-12-18T02:45:51.605Z,100.00
2018-12-18T02:48:20.187Z,100.00
2018-12-18T02:50:48.457Z,100.00
2018-12-18T02:53:16.744Z,100.00
2018-12-18T02:55:45.008Z,100.00
2018-12-18T02:58:13.285Z,100.00
2018-12-18T03:00:41.563Z,100.00
2018-12-18T03:03:09.842Z,100.00
2018-12-18T03:05:38.100Z,100.00
2018-12-18T03:08:06.376Z,100.00
2018-12-18T03:10:34.645Z,100.00
2018-12-18T03:13:02.927Z,100.00
2018-12-18T03:15:31.304Z,100.00
2018-12-18T03:17:59.582Z,100.00
2018-12-18T03:20:27.915Z,100.00
2018-12-18T03:22:56.173Z,100.00
2018-12-18T03:25:24.453Z,100.00
2018-12-18T03:27:52.803Z,100.00
2018-12-18T03:30:21.068Z,100.00
2018-12-18T03:35:31.331Z,100.00
2018-12-18T03:37:59.612Z,100.00
2018-12-18T03:40:27.873Z,100.00
2018-12-18T03:42:56.147Z,100.00
2018-12-18T03:45:24.430Z,100.00
2018-12-18T03:47:52.687Z,100.00
2018-12-18T03:50:20.984Z,100.00
2018-12-18T03:52:49.246Z,100.00
2018-12-18T03:55:17.530Z,100.00
2018-12-18T03:57:45.911Z,100.00
2018-12-18T04:00:14.183Z,100.00
2018-12-18T04:02:42.460Z,100.00
2018-12-18T04:05:10.726Z,100.00
2018-12-18T04:07:38.992Z,100.00
2018-12-18T04:10:07.491Z,100.00
2018-12-18T04:12:35.997Z,100.00
2018-12-18T04:15:05.184Z,100.00
2018-12-18T04:17:33.451Z,100.00
2018-12-18T04:20:01.768Z,100.00
2018-12-18T04:22:30.230Z,100.00
2018-12-18T04:24:58.476Z,100.00
2018-12-18T04:27:26.752Z,100.00
2018-12-18T04:29:55.010Z,100.00
2018-12-18T04:32:23.279Z,100.00
2018-12-18T04:34:51.631Z,100.00
2018-12-18T04:37:20.001Z,100.00
2018-12-18T04:39:48.272Z,100.00
2018-12-18T04:42:16.543Z,100.00
2018-12-18T04:44:44.803Z,100.00
2018-12-18T04:47:13.207Z,100.00
2018-12-18T04:49:41.601Z,100.00
2018-12-18T04:52:09.981Z,100.00
2018-12-18T04:54:38.250Z,100.00
2018-12-18T04:57:06.525Z,100.00
2018-12-18T04:59:34.783Z,100.00
2018-12-18T05:02:03.057Z,100.00
2018-12-18T05:04:31.317Z,100.00
2018-12-18T05:06:59.600Z,100.00
2018-12-18T05:09:27.867Z,100.00
2018-12-18T05:11:56.129Z,100.00
2018-12-18T05:14:24.402Z,100.00
2018-12-18T05:16:52.660Z,100.00
2018-12-18T05:19:20.997Z,100.00
2018-12-18T05:21:49.256Z,100.00
2018-12-18T05:24:17.579Z,100.00
2018-12-18T05:26:45.872Z,100.00
2018-12-18T05:29:14.143Z,100.00
2018-12-18T05:31:42.413Z,100.00
2018-12-18T05:34:10.693Z,100.00
2018-12-18T05:36:38.953Z,100.00
2018-12-18T05:39:07.725Z,100.00
2018-12-18T05:41:36.007Z,100.00
2018-12-18T05:44:04.499Z,100.00
2018-12-18T05:46:32.763Z,100.00
2018-12-18T05:49:01.024Z,100.00
2018-12-18T05:51:29.306Z,100.00
2018-12-18T05:53:57.554Z,100.00
2018-12-18T05:56:25.816Z,100.00
2018-12-18T05:58:54.080Z,100.00
2018-12-18T06:01:22.454Z,100.00
2018-12-18T06:03:50.742Z,100.00
2018-12-18T06:06:19.067Z,100.00
2018-12-18T06:08:47.365Z,100.00
2018-12-18T06:11:15.850Z,100.00
2018-12-18T06:13:44.338Z,100.00
2018-12-18T06:16:12.746Z,100.00
2018-12-18T06:18:41.114Z,100.00
2018-12-18T06:21:09.478Z,100.00
2018-12-18T06:23:37.878Z,100.00
2018-12-18T06:26:06.263Z,100.00
2018-12-18T06:28:34.632Z,100.00
2018-12-18T06:31:03.012Z,100.00
2018-12-18T06:33:31.303Z,100.00
2018-12-18T06:35:59.639Z,100.00
2018-12-18T06:38:28.032Z,100.00
2018-12-18T06:40:56.344Z,100.00
2018-12-18T06:43:24.632Z,100.00
2018-12-18T06:45:52.898Z,100.00
2018-12-18T06:48:21.151Z,100.00
2018-12-18T06:50:49.424Z,100.00
2018-12-18T06:53:17.684Z,100.00
2018-12-18T06:55:45.991Z,100.00
2018-12-18T06:58:14.282Z,100.00
2018-12-18T07:00:42.543Z,100.00
2018-12-18T07:03:10.864Z,100.00
2018-12-18T07:05:39.137Z,100.00
2018-12-18T07:08:07.426Z,100.00
2018-12-18T07:10:35.695Z,100.00
2018-12-18T07:13:04.007Z,100.00
2018-12-18T07:15:32.480Z,100.00
2018-12-18T07:18:00.748Z,100.00
2018-12-18T07:20:29.024Z,100.00
2018-12-18T07:22:57.283Z,100.00
2018-12-18T07:25:25.579Z,100.00
2018-12-18T07:27:53.840Z,100.00
2018-12-18T07:30:22.251Z,100.00
2018-12-18T07:32:50.604Z,100.00
2018-12-18T07:35:23.307Z,100.00
2018-12-18T07:37:49.239Z,100.00
2018-12-18T07:40:17.603Z,100.00
2018-12-18T07:42:45.860Z,100.00
2018-12-18T07:45:14.163Z,100.00
2018-12-18T07:47:42.434Z,100.00
2018-12-18T07:50:10.764Z,100.00
2018-12-18T07:52:39.019Z,100.00
2018-12-18T07:55:07.851Z,100.00
2018-12-18T07:57:36.112Z,100.00
2018-12-18T08:00:05.450Z,100.00
2018-12-18T08:02:33.872Z,100.00
2018-12-18T08:05:02.167Z,100.00
2018-12-18T08:07:30.417Z,100.00
2018-12-18T08:09:58.666Z,100.00
2018-12-18T08:12:26.936Z,100.00
2018-12-18T08:14:55.189Z,100.00
2018-12-18T08:17:23.444Z,100.00
2018-12-18T08:19:51.717Z,100.00
2018-12-18T08:22:20.043Z,100.00
2018-12-18T08:24:48.377Z,100.00
2018-12-18T08:27:16.714Z,100.00
2018-12-18T08:29:45.065Z,100.00
2018-12-18T08:32:13.359Z,100.00
2018-12-18T08:34:41.715Z,100.00
2018-12-18T08:37:10.024Z,100.00
2018-12-18T08:39:38.362Z,100.00
2018-12-18T08:42:06.635Z,100.00
2018-12-18T08:44:34.957Z,100.00
2018-12-18T08:47:03.290Z,100.00
2018-12-18T08:49:31.623Z,100.00
2018-12-18T08:51:59.887Z,100.00
2018-12-18T08:54:28.140Z,100.00
2018-12-18T08:56:56.448Z,100.00
2018-12-18T08:59:24.708Z,100.00
2018-12-18T09:01:53.129Z,100.00
2018-12-18T09:04:21.379Z,100.00
2018-12-18T09:06:49.715Z,100.00
2018-12-18T09:09:17.983Z,100.00
2018-12-18T09:11:46.245Z,100.00
2018-12-18T09:14:14.509Z,100.00
2018-12-18T09:16:48.328Z,100.00
2018-12-18T09:19:16.592Z,100.00
2018-12-18T09:21:44.852Z,100.00
2018-12-18T09:24:13.117Z,100.00
2018-12-18T09:26:41.389Z,100.00
2018-12-18T09:29:09.660Z,100.00
2018-12-18T09:31:37.920Z,100.00
2018-12-18T09:34:06.183Z,100.00
2018-12-18T09:36:34.461Z,100.00
2018-12-18T09:39:08.369Z,100.00
2018-12-18T09:41:39.500Z,100.00
2018-12-18T09:46:58.299Z,100.00
2018-12-18T09:49:26.552Z,100.00
2018-12-18T09:51:54.805Z,100.00
2018-12-18T09:54:23.138Z,100.00
2018-12-18T09:56:51.391Z,100.00
2018-12-18T09:59:19.643Z,100.00
2018-12-18T10:01:47.905Z,100.00
2018-12-18T10:04:16.148Z,100.00
2018-12-18T10:06:45.185Z,100.00
2018-12-18T10:09:13.593Z,100.00
2018-12-18T10:11:41.836Z,100.00
2018-12-18T10:14:10.112Z,100.00
2018-12-18T10:16:38.417Z,100.00
2018-12-18T10:19:06.704Z,100.00
2018-12-18T10:21:34.980Z,100.00
2018-12-18T10:24:03.228Z,100.00
2018-12-18T10:26:31.537Z,100.00
2018-12-18T10:29:00.542Z,100.00
2018-12-18T10:31:28.808Z,100.00
2018-12-18T10:33:57.061Z,100.00
2018-12-18T10:36:25.352Z,100.00
2018-12-18T10:38:53.651Z,100.00
2018-12-18T10:41:21.909Z,100.00
2018-12-18T10:43:50.198Z,100.00
2018-12-18T10:46:18.460Z,100.00
2018-12-18T10:48:46.728Z,100.00
2018-12-18T10:51:15.059Z,100.00
2018-12-18T10:53:43.296Z,100.00
2018-12-18T10:56:11.555Z,100.00
2018-12-18T10:58:39.808Z,100.00
2018-12-18T11:04:05.125Z,100.00
2018-12-18T11:06:33.550Z,100.00
2018-12-18T11:09:01.869Z,100.00
2018-12-18T11:11:30.136Z,100.00
2018-12-18T11:13:58.397Z,100.00
2018-12-18T11:16:26.781Z,100.00
2018-12-18T11:18:55.059Z,100.00
2018-12-18T11:21:23.415Z,100.00
2018-12-18T11:23:51.712Z,100.00
2018-12-18T11:26:19.967Z,100.00
2018-12-18T11:28:48.243Z,100.00
2018-12-18T11:31:16.579Z,100.00
2018-12-18T11:33:44.919Z,100.00
2018-12-18T11:36:16.499Z,100.00
2018-12-18T11:38:43.610Z,100.00
2018-12-18T11:41:11.937Z,100.00
2018-12-18T11:43:40.608Z,100.00
2018-12-18T11:46:09.054Z,99.25
2018-12-18T11:48:37.656Z,100.00
2018-12-18T11:51:06.115Z,99.63
2018-12-18T11:53:34.556Z,99.49
2018-12-18T11:56:02.971Z,99.65
2018-12-18T11:58:31.341Z,100.00
2018-12-18T12:00:59.726Z,100.00
2018-12-18T12:03:28.122Z,99.96
2018-12-18T12:05:56.603Z,99.82
2018-12-18T12:08:25.046Z,100.00
2018-12-18T12:10:53.374Z,99.04
2018-12-18T12:13:21.872Z,99.00
2018-12-18T12:15:50.190Z,99.40
2018-12-18T12:18:18.578Z,100.00
2018-12-18T12:20:46.915Z,100.00
2018-12-18T12:23:15.226Z,100.00
2018-12-18T12:25:43.572Z,100.00
2018-12-18T12:28:12.097Z,100.00
2018-12-18T12:30:40.432Z,100.00
2018-12-18T12:33:08.764Z,100.00
2018-12-18T12:35:37.131Z,100.00
2018-12-18T12:38:05.528Z,100.00
2018-12-18T12:40:33.989Z,100.00
2018-12-18T12:43:02.343Z,99.79
2018-12-18T12:45:30.700Z,98.44
2018-12-18T12:47:59.035Z,99.14
2018-12-18T12:50:27.408Z,99.16
2018-12-18T12:52:55.886Z,99.39
2018-12-18T12:55:24.220Z,99.34
2018-12-18T12:57:52.553Z,99.71
2018-12-18T13:00:20.904Z,99.37
2018-12-18T13:02:49.207Z,99.33
2018-12-18T13:05:17.607Z,99.97
2018-12-18T13:07:45.922Z,99.95
2018-12-18T13:10:14.298Z,99.04
2018-12-18T13:12:42.611Z,99.83
2018-12-18T13:15:10.917Z,100.00
2018-12-18T13:17:39.302Z,99.70
2018-12-18T13:20:07.750Z,100.00
2018-12-18T13:22:36.088Z,100.00
2018-12-18T13:25:05.349Z,100.00
2018-12-18T13:27:33.699Z,100.00
2018-12-18T13:30:02.824Z,100.00
2018-12-18T13:32:31.166Z,100.00
2018-12-18T13:34:59.677Z,100.00
2018-12-18T13:37:28.061Z,100.00
2018-12-18T13:39:56.375Z,99.97
2018-12-18T13:42:24.718Z,100.00
2018-12-18T13:44:53.274Z,100.00
2018-12-18T13:47:27.149Z,100.00
2018-12-18T13:49:52.358Z,100.00
2018-12-18T13:52:20.856Z,100.00
2018-12-18T13:54:49.298Z,100.00
2018-12-18T13:57:17.727Z,100.00
2018-12-18T13:59:46.205Z,100.00
2018-12-18T14:02:14.540Z,100.00
2018-12-18T14:04:43.143Z,100.00
2018-12-18T14:07:11.535Z,100.00
2018-12-18T14:09:40.247Z,100.00
2018-12-18T14:12:08.591Z,100.00
2018-12-18T14:14:36.912Z,100.00
2018-12-18T14:19:47.725Z,100.00
2018-12-18T14:22:16.021Z,100.00
2018-12-18T14:24:44.353Z,100.00
2018-12-18T14:27:12.715Z,100.00
2018-12-18T14:29:40.991Z,100.00
2018-12-18T14:32:09.260Z,100.00
2018-12-18T14:34:37.536Z,100.00
2018-12-18T14:37:05.796Z,100.00
2018-12-18T14:39:34.061Z,100.00
2018-12-18T14:42:02.338Z,100.00
2018-12-18T14:44:30.611Z,100.00
2018-12-18T14:46:58.994Z,100.00
2018-12-18T14:49:27.316Z,100.00
2018-12-18T14:51:55.575Z,100.00
2018-12-18T14:54:23.903Z,100.00
2018-12-18T14:56:52.163Z,100.00
2018-12-18T14:59:22.474Z,100.00
2018-12-18T15:01:50.789Z,100.00
2018-12-18T15:04:19.108Z,100.00
2018-12-18T15:06:47.488Z,100.00
2018-12-18T15:09:15.808Z,100.00
2018-12-18T15:11:44.241Z,100.00
2018-12-18T15:14:12.750Z,100.00
2018-12-18T15:16:41.176Z,100.00
2018-12-18T15:19:09.566Z,100.00
2018-12-18T15:21:38.016Z,100.00
2018-12-18T15:24:06.414Z,100.00
2018-12-18T15:26:34.754Z,100.00
2018-12-18T15:29:03.116Z,100.00
2018-12-18T15:31:31.494Z,100.00
2018-12-18T15:33:59.870Z,100.00
2018-12-18T15:36:28.195Z,100.00
2018-12-18T15:38:56.642Z,100.00
2018-12-18T15:41:24.983Z,100.00
2018-12-18T15:43:53.407Z,100.00
2018-12-18T15:46:21.755Z,100.00
2018-12-18T15:48:50.070Z,100.00
2018-12-18T15:51:18.385Z,100.00
2018-12-18T15:53:46.725Z,100.00
2018-12-18T15:56:15.078Z,100.00
2018-12-18T15:58:43.365Z,100.00
2018-12-18T16:01:11.616Z,100.00
2018-12-18T16:03:39.887Z,100.00
2018-12-18T16:06:08.140Z,100.00
2018-12-18T16:08:36.401Z,100.00
2018-12-18T16:11:04.669Z,100.00
2018-12-18T16:13:32.936Z,100.00
2018-12-18T16:16:01.261Z,100.00
2018-12-18T16:18:29.553Z,100.00
2018-12-18T16:20:57.824Z,100.00
2018-12-18T16:23:26.124Z,100.00
2018-12-18T16:25:54.379Z,100.00
2018-12-18T16:28:22.652Z,100.00
2018-12-18T16:30:50.929Z,100.00
2018-12-18T16:33:19.207Z,100.00
2018-12-18T16:35:47.498Z,100.00
2018-12-18T16:38:15.758Z,100.00
2018-12-18T16:40:44.064Z,100.00
2018-12-18T16:43:12.343Z,100.00
2018-12-18T16:45:40.601Z,100.00
2018-12-18T16:48:08.863Z,100.00
2018-12-18T16:50:37.136Z,100.00
2018-12-18T16:53:05.443Z,100.00
2018-12-18T16:55:33.719Z,100.00
2018-12-18T16:58:01.995Z,100.00
2018-12-18T17:00:30.273Z,100.00
2018-12-18T17:02:58.519Z,100.00
2018-12-18T17:05:26.828Z,100.00
2018-12-18T17:07:55.100Z,100.00
2018-12-18T17:10:23.354Z,100.00
2018-12-18T17:12:56.180Z,100.00
2018-12-18T17:15:24.744Z,100.00
2018-12-18T17:17:53.077Z,100.00
2018-12-18T17:20:21.417Z,100.00
2018-12-18T17:22:49.686Z,100.00
2018-12-18T17:25:17.936Z,100.00
2018-12-18T17:27:46.190Z,100.00
2018-12-18T17:30:14.452Z,100.00
2018-12-18T17:32:42.704Z,100.00
2018-12-18T17:35:11.064Z,100.00
2018-12-18T17:37:39.482Z,100.00
2018-12-18T17:40:08.023Z,100.00
2018-12-18T17:42:36.331Z,100.00
2018-12-18T17:45:06.041Z,100.00
2018-12-18T17:47:34.399Z,100.00
2018-12-18T17:50:02.737Z,100.00
2018-12-18T17:52:30.975Z,100.00
2018-12-18T17:54:59.228Z,100.00
2018-12-18T17:57:27.491Z,100.00
2018-12-18T17:59:55.739Z,100.00
2018-12-18T18:02:23.993Z,100.00
2018-12-18T18:04:52.315Z,100.00
2018-12-18T18:07:20.649Z,100.00
2018-12-18T18:09:48.980Z,100.00
2018-12-18T18:12:17.247Z,100.00
2018-12-18T18:14:45.512Z,100.00
2018-12-18T18:17:13.776Z,100.00
2018-12-18T18:19:42.023Z,100.00
2018-12-18T18:22:10.323Z,100.00
2018-12-18T18:24:38.721Z,100.00
2018-12-18T18:27:07.011Z,100.00
2018-12-18T18:29:35.306Z,100.00
2018-12-18T18:32:03.617Z,100.00
2018-12-18T18:34:31.964Z,100.00
2018-12-18T18:37:00.424Z,100.00
2018-12-18T18:39:28.806Z,100.00
2018-12-18T18:41:57.341Z,100.00
2018-12-18T18:44:26.062Z,100.00
2018-12-18T18:46:55.337Z,100.00
2018-12-18T18:49:23.767Z,100.00
2018-12-18T18:51:52.607Z,100.00
2018-12-18T18:54:21.186Z,100.00
2018-12-18T18:56:49.750Z,100.00
2018-12-18T18:59:18.169Z,100.00
2018-12-18T19:01:46.649Z,100.00
2018-12-18T19:04:14.991Z,100.00
2018-12-18T19:06:44.043Z,100.00
2018-12-18T19:09:12.435Z,100.00
2018-12-18T19:11:41.272Z,100.00
2018-12-18T19:14:09.794Z,100.00
2018-12-18T19:16:38.685Z,100.00
2018-12-18T19:19:08.336Z,100.00
2018-12-18T19:21:37.495Z,100.00
2018-12-18T19:24:06.316Z,100.00
2018-12-18T19:26:35.672Z,100.00
2018-12-18T19:29:04.549Z,100.00
2018-12-18T19:31:33.732Z,100.00
2018-12-18T19:34:03.676Z,100.00
2018-12-18T19:36:33.417Z,100.00
2018-12-18T19:39:06.698Z,100.00
2018-12-18T19:41:36.697Z,100.00
2018-12-18T19:44:06.633Z,100.00
2018-12-18T19:46:36.418Z,100.00
2018-12-18T19:49:06.647Z,100.00
2018-12-18T19:51:36.583Z,100.00
2018-12-18T19:54:06.660Z,100.00
2018-12-18T19:56:36.694Z,100.00
2018-12-18T19:59:10.760Z,100.00
2018-12-18T20:01:38.178Z,100.00
2018-12-18T20:04:08.113Z,100.00
2018-12-18T20:06:37.853Z,100.00
2018-12-18T20:09:08.198Z,100.00
2018-12-18T20:11:38.828Z,100.00
2018-12-18T20:14:08.701Z,100.00
2018-12-18T20:16:38.542Z,100.00
2018-12-18T20:19:08.228Z,100.00
2018-12-18T20:21:37.872Z,100.00
2018-12-18T20:24:07.617Z,100.00
2018-12-18T20:26:37.431Z,100.00
2018-12-18T20:29:07.559Z,100.00
2018-12-18T20:31:37.757Z,100.00
2018-12-18T20:34:07.047Z,100.00
2018-12-18T20:36:36.982Z,100.00
2018-12-18T20:39:09.073Z,100.00
2018-12-18T20:41:38.769Z,100.00
2018-12-18T20:44:08.622Z,100.00
2018-12-18T20:46:37.891Z,100.00
2018-12-18T20:49:07.704Z,100.00
2018-12-18T20:51:37.607Z,100.00
2018-12-18T20:54:07.673Z,100.00
2018-12-18T20:56:37.545Z,100.00
2018-12-18T20:59:06.887Z,100.00
2018-12-18T21:01:37.117Z,100.00
2018-12-18T21:04:06.429Z,100.00
2018-12-18T21:06:35.716Z,100.00
2018-12-18T21:09:09.038Z,100.00
2018-12-18T21:14:20.783Z,100.00
2018-12-18T21:16:50.162Z,100.00
2018-12-18T21:19:19.924Z,100.00
2018-12-18T21:21:49.136Z,100.00
2018-12-18T21:24:18.384Z,100.00
2018-12-18T21:26:47.679Z,100.00
2018-12-18T21:29:16.829Z,100.00
2018-12-18T21:31:46.153Z,100.00
2018-12-18T21:34:15.395Z,100.00
2018-12-18T21:36:44.515Z,100.00
2018-12-18T21:39:14.501Z,100.00
2018-12-18T21:41:43.575Z,100.00
2018-12-18T21:44:12.431Z,100.00
2018-12-18T21:46:41.543Z,100.00
2018-12-18T21:49:09.907Z,100.00
2018-12-18T21:51:38.643Z,100.00
2018-12-18T21:54:07.039Z,100.00
2018-12-18T21:56:35.351Z,100.00
2018-12-18T21:59:03.677Z,100.00
2018-12-18T22:01:31.990Z,100.00
2018-12-18T22:04:00.282Z,100.00
2018-12-18T22:06:28.629Z,100.00
2018-12-18T22:08:56.929Z,100.00
2018-12-18T22:11:25.332Z,100.00
2018-12-18T22:13:53.602Z,100.00
2018-12-18T22:16:21.885Z,100.00
2018-12-18T22:18:50.147Z,100.00
2018-12-18T22:21:18.596Z,100.00
2018-12-18T22:23:46.860Z,100.00
2018-12-18T22:26:15.232Z,100.00
2018-12-18T22:28:43.532Z,100.00
2018-12-18T22:31:11.786Z,100.00
2018-12-18T22:33:40.060Z,100.00
2018-12-18T22:36:08.311Z,100.00
2018-12-18T22:38:36.608Z,100.00
2018-12-18T22:41:04.887Z,100.00
2018-12-18T22:43:33.148Z,100.00
2018-12-18T22:46:01.418Z,100.00
2018-12-18T22:48:29.698Z,100.00
2018-12-18T22:50:57.960Z,100.00
2018-12-18T22:53:26.209Z,100.00
2018-12-18T22:55:54.455Z,100.00
2018-12-18T22:58:22.731Z,100.00
2018-12-18T23:03:40.660Z,100.00
2018-12-18T23:06:08.996Z,100.00
2018-12-18T23:08:37.320Z,100.00
2018-12-18T23:11:05.595Z,100.00
2018-12-18T23:13:33.863Z,100.00
2018-12-18T23:16:02.135Z,100.00
2018-12-18T23:18:30.395Z,100.00
2018-12-18T23:20:58.664Z,100.00
2018-12-18T23:23:26.927Z,100.00
2018-12-18T23:25:55.196Z,100.00
2018-12-18T23:28:23.475Z,100.00
2018-12-18T23:30:51.737Z,100.00
2018-12-18T23:33:20.007Z,100.00
2018-12-18T23:35:48.392Z,100.00
2018-12-18T23:38:16.676Z,100.00
2018-12-18T23:40:45.043Z,100.00
2018-12-18T23:43:13.379Z,100.00
2018-12-18T23:45:41.679Z,100.00
2018-12-18T23:48:09.964Z,100.00
2018-12-18T23:50:38.235Z,100.00
2018-12-18T23:53:06.498Z,100.00
2018-12-18T23:55:34.778Z,100.00
2018-12-18T23:58:03.035Z,100.00
